الصفحة الرئيسية
METAR-TAF:

METAR-TAF

مطار :

مطار الأمير سعيد إبراهيم الدولي

موروني, جزر القمر

دائرة عرض: 11-32S, خط طول: 043-16E, ارتفاع: 29 متر

مراقبة الطقس الحالي

تاريخ ووقت الإصدار 4ساعات و 51 دقيقة قبل الساعة 14:00UTC
ريح 13 عقدة من الجنوب/الجنوب الغربي
درجة الحرارة 30°درجة مئوية
الرطوبة 66%
ضغط 1014 hPa
الرؤية 10 كم أو أكثر
غيوم متفرقة على ارتفاع 2200 قدم

METAR: FMCH 291400Z 21013KT 9999 SCT022 30/23 Q1014 NOSIG

زمن: 21:51 (18:51 UTC)

توقعات

تاريخ ووقت الإصدار 7ساعات و 51 دقيقة قبل الساعة 11:00UTC
التوقعات صالحة من29 الساعة 12 UTC إلى 30 الساعة 18 UTC
ريح 15 عقدة من الجنوب الغربي
الرؤية 10 كم أو أكثر
غيوم قليلة على ارتفاع 2000 قدم
أصبح
من 29 الساعة 15 UTC إلى 28 الساعة 17 UTC
ريح 3 عقدة من الشرق/الجنوب الشرقي
أصبح
من 30 الساعة 05 UTC إلى 30 الساعة 07 UTC
ريح 14 عقدة من الجنوب/الجنوب الغربي

TAF: FMCH 291100Z 2912/3018 22015KT 9999 FEW020 BECMG 2915/2817 11003KT BECMG 3005/3007 20014KT

أرصاد الطقس والتوقعات من أكثر من 4000 مطار (تقارير الطقس للمطار METAR والتنبؤ بالطقس بالمطارTAF).

المحطات المتاحة هي النقط الصفراء والحمراء على الخريطة.

حرك المؤشر فوق النقطة لمعرفة اسم المحطة.

ثم انقر لمعرفة أرصاد وتوقعات الطقس.

لتغيير الخارطة: اضغط على الأزرار الخضراء مع رمز الصليب الأسود للتكبير. على الزر الأخضر مع شرطة للتصغير، أو على الأسهم الخضراء للخرائط المجاورة.


METAR-TAF: